Ashford, WA

4:33 AM PDT on March 24, 2017 (GMT -0700)
Paradise Estates | | Change Station
Active Advisory: Winter Weather Advisory

Elev 1722 ft 46.73 °N, 122.01 °W | Updated 31 seconds ago

Rain
Rain
40.5 °F
Feels Like 40 °F
N
0.0
Wind Variable Wind from SE
Gusts 0.0 mph

Today
High -- | Low -- °F
--% Chance of Precip.
Yesterday
High -- | Low -- °F
Precip. -- in
Pressure 29.78 in
Visibility 5.0 miles
Clouds
Windchill 40 °F
Dew Point 39 °F
Humidity 93%
Rainfall 0.38 in
Snow Depth Not available.
7:02 AM 7:26 PM
Waning Crescent, 16% visible
METAR KPLU 241115Z AUTO 00000KT 5SM BR 07/07 A2978 RMK AO2
Pressure 29.78 in
Visibility 5.0 miles
Clouds
Windchill 40 °F
Dew Point 39 °F
Humidity 93%
Rainfall 0.38 in
Snow Depth Not available.
7:02 AM 7:26 PM
Waning Crescent, 16% visible
METAR KPLU 241115Z AUTO 00000KT 5SM BR 07/07 A2978 RMK AO2

Get Your Daily Forecast Email!

Thanks for signing up!

Be on the lookout for a verification email in your inbox.

You'll start receiving severe weather alerts in your inbox..

×

10-Day Weather Forecast

Almanac

Astronomy

Mar. 24, 2017 Rise Set
Actual Time
Civil Twilight
Nautical Twilight
Astronomical Twilight
Moon
Length of Visible Light
Length of Day
Tomorrow will be .
, % of the Moon is Illuminated

Today's Extremes

State Highs State Lows

Community

WunderPhotos

Upload Photos

1,962,540 photos uploaded!

WunderBlog® & News

Nearby

Air Quality

  Air Quality AQ Index Pollutant
Not available.

Snow Depth

Station Depth Elevation

Earthquake Activity

City Distance Mag. Time & Date
Minimum magnitude displayed is 2.5.

Earthquake Activity

City Distance Mag. Time & Date
Minimum magnitude displayed is 2.5.

Coastal Water Temperatures

Place Temperature

Stations

Nearby Weather Stations

Station Location Temp. Windchill Dew Point Humidity Wind Precip. Elev Updated Type
                   

Watches & Warnings

Winter Weather Advisory
Issued: 3:03 PM PDT Mar. 23, 2017 – National Weather Service

... Winter Weather Advisory in effect from 11 PM this evening to
11 am PDT Friday...

The National Weather Service in Seattle has issued a Winter
Weather Advisory for snow, which is in effect from 11 PM this
evening to 11 am PDT Friday.

* Snow accumulations... 6 to 8 inches above 4000 feet or so.

* Some affected locations... Mount Baker ski area and Paradise on
in Mount Rainier National Park.

* Timing... snow will begin late this evening and continue into
Friday morning. Snow will taper Friday afternoon.

* Main impact... travel around the affected locations could be
slowed.

Precautionary/preparedness actions...

A Winter Weather Advisory for snow means that periods of snow
will cause primarily travel difficulties. Be prepared for snow
covered roads and limited visibilities, and use caution while
driving.



Www.Weather.Gov/Seattle